Hauptseite
METAR-TAF:

METAR-TAF

Flughäfen :

Oberpfaffenhofen, Deutschland

Breite: 48-05N, Länge: 011-17E, Höhe: 600 m

Beobachtung

Neuester Wetterbericht von vor 34 Minuten, um 06:20 UTC
Windstille
Temperatur 7°C
Luftfeuchtigkeit 87%
Luftdruck 1015 hPa
Sichtweite 10 km oder mehr
keine Wolken unter 1500 m und keine Kumulonimbus oder Gewitterwolken

METAR: EDMO 200620Z 00000KT CAVOK 07/05 Q1015

Zeit: 08:54 (06:54 UTC)

Prognose

Neuester Wetterbericht von vor 1 Stunde und 54 Minuten, um 05:00 UTC
Gültige Prognose vom 20 um 06 UTC bis 20 um 15 UTC
Wind 5 kt aus Südwest
Sichtweite 10 km oder mehr
keine Wolken unter 1500 m und keine Kumulonimbus oder Gewitterwolken

TAF: EDMO 200500Z 2006/2015 23005KT CAVOK

Wetterbeobachtungen und Prognosen von mehr als 4000 Flughäfen (METAR und TAF Bericht).

Die verfügbaren Stationen werden durch gelbe und rote Markierungen auf der Karte dargestellt.

Führen Sie die Maus auf sie, um den Namen der Station zu sehen.

Darauf klicken, um die Beobachtung von Wetterbeobachtungen und Prognosen zu sehen.

Um die Karte zu ändern : klicken Sie auf den grünen Tasten mit einem schwarzen Kreuz Zum Vergrößern, auf den grünen Button mit einem Gedankenstrich zu verkleinern, oder auf die grünen Pfeile für benachbarte Karten.


METAR-TAF: